sensor_id;sensor_type;location;lat;lon;timestamp;pressure;altitude;pressure_sealevel;temperature;humidity
54936;BME280;40838;50.676;7.838;2023-06-10T00:00:24;98158.03;;;12.47;100.00
54936;BME280;40838;50.676;7.838;2023-06-10T00:02:51;98156.41;;;12.32;100.00
54936;BME280;40838;50.676;7.838;2023-06-10T00:05:19;98151.56;;;12.34;100.00
54936;BME280;40838;50.676;7.838;2023-06-10T00:07:46;98150.28;;;12.32;100.00
54936;BME280;40838;50.676;7.838;2023-06-10T00:10:13;98143.25;;;12.22;100.00
54936;BME280;40838;50.676;7.838;2023-06-10T00:12:39;98152.28;;;12.40;100.00
54936;BME280;40838;50.676;7.838;2023-06-10T00:15:07;98155.81;;;12.35;100.00
54936;BME280;40838;50.676;7.838;2023-06-10T00:17:34;98151.34;;;12.31;100.00
54936;BME280;40838;50.676;7.838;2023-06-10T00:20:05;98149.78;;;12.30;100.00
54936;BME280;40838;50.676;7.838;2023-06-10T00:22:35;98155.94;;;12.44;100.00
54936;BME280;40838;50.676;7.838;2023-06-10T00:25:03;98146.59;;;12.28;100.00
54936;BME280;40838;50.676;7.838;2023-06-10T00:27:30;98146.47;;;12.19;100.00
54936;BME280;40838;50.676;7.838;2023-06-10T00:30:03;98148.84;;;12.21;100.00
54936;BME280;40838;50.676;7.838;2023-06-10T00:32:32;98148.81;;;12.07;100.00
54936;BME280;40838;50.676;7.838;2023-06-10T00:34:58;98144.94;;;11.99;100.00
54936;BME280;40838;50.676;7.838;2023-06-10T00:37:26;98151.63;;;11.97;100.00
54936;BME280;40838;50.676;7.838;2023-06-10T00:39:55;98145.22;;;11.79;100.00
54936;BME280;40838;50.676;7.838;2023-06-10T00:42:22;98153.13;;;11.65;100.00
54936;BME280;40838;50.676;7.838;2023-06-10T00:44:50;98153.25;;;11.55;100.00
54936;BME280;40838;50.676;7.838;2023-06-10T00:47:17;98158.69;;;11.50;100.00
54936;BME280;40838;50.676;7.838;2023-06-10T00:49:44;98157.78;;;11.54;100.00
54936;BME280;40838;50.676;7.838;2023-06-10T00:52:11;98155.44;;;11.53;100.00
54936;BME280;40838;50.676;7.838;2023-06-10T00:54:40;98154.63;;;11.71;100.00
54936;BME280;40838;50.676;7.838;2023-06-10T00:57:09;98151.56;;;11.83;100.00
54936;BME280;40838;50.676;7.838;2023-06-10T00:59:35;98153.13;;;11.65;100.00
54936;BME280;40838;50.676;7.838;2023-06-10T01:02:03;98157.16;;;11.62;100.00
54936;BME280;40838;50.676;7.838;2023-06-10T01:04:29;98155.13;;;11.54;100.00
54936;BME280;40838;50.676;7.838;2023-06-10T01:06:57;98151.44;;;11.93;100.00
54936;BME280;40838;50.676;7.838;2023-06-10T01:09:29;98150.19;;;11.85;100.00
54936;BME280;40838;50.676;7.838;2023-06-10T01:12:00;98149.41;;;11.85;100.00
54936;BME280;40838;50.676;7.838;2023-06-10T01:14:30;98155.00;;;11.64;100.00
54936;BME280;40838;50.676;7.838;2023-06-10T01:16:58;98159.72;;;11.49;100.00
54936;BME280;40838;50.676;7.838;2023-06-10T01:19:27;98157.06;;;11.49;100.00
54936;BME280;40838;50.676;7.838;2023-06-10T01:21:57;98158.59;;;11.55;100.00
54936;BME280;40838;50.676;7.838;2023-06-10T01:24:25;98158.09;;;11.72;100.00
54936;BME280;40838;50.676;7.838;2023-06-10T01:26:54;98157.72;;;11.59;100.00
54936;BME280;40838;50.676;7.838;2023-06-10T01:29:24;98163.75;;;11.46;100.00
54936;BME280;40838;50.676;7.838;2023-06-10T01:31:54;98160.66;;;11.39;100.00
54936;BME280;40838;50.676;7.838;2023-06-10T01:34:25;98167.47;;;11.50;100.00
54936;BME280;40838;50.676;7.838;2023-06-10T01:36:53;98159.25;;;11.47;100.00
54936;BME280;40838;50.676;7.838;2023-06-10T01:39:23;98163.19;;;11.30;100.00
54936;BME280;40838;50.676;7.838;2023-06-10T01:41:50;98158.97;;;11.24;100.00
54936;BME280;40838;50.676;7.838;2023-06-10T01:44:18;98155.84;;;11.17;100.00
54936;BME280;40838;50.676;7.838;2023-06-10T01:46:45;98160.22;;;11.08;100.00
54936;BME280;40838;50.676;7.838;2023-06-10T01:49:13;98156.34;;;11.00;100.00
54936;BME280;40838;50.676;7.838;2023-06-10T01:51:42;98154.50;;;11.19;100.00
54936;BME280;40838;50.676;7.838;2023-06-10T01:54:09;98151.75;;;11.06;100.00
54936;BME280;40838;50.676;7.838;2023-06-10T01:56:37;98143.97;;;11.09;100.00
54936;BME280;40838;50.676;7.838;2023-06-10T01:59:04;98141.03;;;11.92;100.00
54936;BME280;40838;50.676;7.838;2023-06-10T02:01:31;98154.66;;;11.90;100.00
54936;BME280;40838;50.676;7.838;2023-06-10T02:03:57;98148.69;;;11.79;100.00
54936;BME280;40838;50.676;7.838;2023-06-10T02:06:26;98156.47;;;11.76;100.00
54936;BME280;40838;50.676;7.838;2023-06-10T02:08:53;98155.09;;;11.78;100.00
54936;BME280;40838;50.676;7.838;2023-06-10T02:11:20;98151.81;;;11.62;100.00
54936;BME280;40838;50.676;7.838;2023-06-10T02:13:48;98155.91;;;11.36;100.00
54936;BME280;40838;50.676;7.838;2023-06-10T02:16:14;98156.06;;;11.44;100.00
54936;BME280;40838;50.676;7.838;2023-06-10T02:18:42;98153.03;;;11.32;100.00
54936;BME280;40838;50.676;7.838;2023-06-10T02:21:09;98160.00;;;11.28;100.00
54936;BME280;40838;50.676;7.838;2023-06-10T02:23:36;98151.41;;;11.31;100.00
54936;BME280;40838;50.676;7.838;2023-06-10T02:26:03;98157.28;;;11.33;100.00
54936;BME280;40838;50.676;7.838;2023-06-10T02:28:30;98160.94;;;11.37;100.00
54936;BME280;40838;50.676;7.838;2023-06-10T02:30:59;98155.47;;;11.29;100.00
54936;BME280;40838;50.676;7.838;2023-06-10T02:33:30;98158.69;;;11.26;100.00
54936;BME280;40838;50.676;7.838;2023-06-10T02:35:56;98156.19;;;11.34;100.00
54936;BME280;40838;50.676;7.838;2023-06-10T02:38:24;98157.94;;;11.63;100.00
54936;BME280;40838;50.676;7.838;2023-06-10T02:40:54;98162.56;;;11.57;100.00
54936;BME280;40838;50.676;7.838;2023-06-10T02:43:21;98159.91;;;11.76;100.00
54936;BME280;40838;50.676;7.838;2023-06-10T02:45:48;98165.78;;;11.35;100.00
54936;BME280;40838;50.676;7.838;2023-06-10T02:48:17;98160.13;;;11.18;100.00
54936;BME280;40838;50.676;7.838;2023-06-10T02:50:44;98161.88;;;11.04;100.00
54936;BME280;40838;50.676;7.838;2023-06-10T02:53:29;98166.22;;;10.99;100.00
54936;BME280;40838;50.676;7.838;2023-06-10T02:56:03;98163.81;;;10.98;100.00
54936;BME280;40838;50.676;7.838;2023-06-10T02:58:30;98163.63;;;10.89;100.00
54936;BME280;40838;50.676;7.838;2023-06-10T03:00:57;98161.53;;;10.86;100.00
54936;BME280;40838;50.676;7.838;2023-06-10T03:03:28;98164.19;;;10.86;100.00
54936;BME280;40838;50.676;7.838;2023-06-10T03:06:06;98161.31;;;10.83;100.00
54936;BME280;40838;50.676;7.838;2023-06-10T03:08:34;98160.97;;;10.89;100.00
54936;BME280;40838;50.676;7.838;2023-06-10T03:11:04;98163.59;;;10.94;100.00
54936;BME280;40838;50.676;7.838;2023-06-10T03:13:32;98150.69;;;11.02;100.00
54936;BME280;40838;50.676;7.838;2023-06-10T03:15:59;98154.97;;;11.03;100.00
54936;BME280;40838;50.676;7.838;2023-06-10T03:18:27;98158.13;;;11.05;100.00
54936;BME280;40838;50.676;7.838;2023-06-10T03:20:56;98166.78;;;10.96;100.00
54936;BME280;40838;50.676;7.838;2023-06-10T03:23:25;98166.03;;;11.15;100.00
54936;BME280;40838;50.676;7.838;2023-06-10T03:25:53;98163.84;;;11.17;100.00
54936;BME280;40838;50.676;7.838;2023-06-10T03:28:20;98167.72;;;11.30;100.00
54936;BME280;40838;50.676;7.838;2023-06-10T03:30:47;98165.16;;;11.43;100.00
54936;BME280;40838;50.676;7.838;2023-06-10T03:33:15;98167.72;;;11.49;100.00
54936;BME280;40838;50.676;7.838;2023-06-10T03:35:46;98172.63;;;11.41;100.00
54936;BME280;40838;50.676;7.838;2023-06-10T03:38:13;98176.03;;;11.47;100.00
54936;BME280;40838;50.676;7.838;2023-06-10T03:40:41;98171.13;;;11.54;100.00
54936;BME280;40838;50.676;7.838;2023-06-10T03:43:09;98176.88;;;11.42;100.00
54936;BME280;40838;50.676;7.838;2023-06-10T03:45:36;98173.38;;;11.47;100.00
54936;BME280;40838;50.676;7.838;2023-06-10T03:48:03;98178.28;;;11.59;100.00
54936;BME280;40838;50.676;7.838;2023-06-10T03:50:42;98173.59;;;11.69;99.38
54936;BME280;40838;50.676;7.838;2023-06-10T03:53:10;98175.06;;;11.81;98.47
54936;BME280;40838;50.676;7.838;2023-06-10T03:55:38;98180.97;;;12.16;96.40
54936;BME280;40838;50.676;7.838;2023-06-10T03:58:06;98183.66;;;12.16;97.31
54936;BME280;40838;50.676;7.838;2023-06-10T04:00:33;98175.34;;;11.98;100.00
54936;BME280;40838;50.676;7.838;2023-06-10T04:03:06;98175.16;;;11.95;99.51
54936;BME280;40838;50.676;7.838;2023-06-10T04:05:38;98170.28;;;12.16;96.11
54936;BME280;40838;50.676;7.838;2023-06-10T04:08:05;98160.09;;;12.83;90.72
54936;BME280;40838;50.676;7.838;2023-06-10T04:10:33;98163.66;;;12.92;92.49
54936;BME280;40838;50.676;7.838;2023-06-10T04:13:02;98165.94;;;12.85;93.07
54936;BME280;40838;50.676;7.838;2023-06-10T04:15:34;98172.47;;;12.79;93.94
54936;BME280;40838;50.676;7.838;2023-06-10T04:18:06;98166.53;;;12.82;92.47
54936;BME280;40838;50.676;7.838;2023-06-10T04:20:33;98170.59;;;12.79;94.33
54936;BME280;40838;50.676;7.838;2023-06-10T04:23:00;98176.44;;;12.82;93.77
54936;BME280;40838;50.676;7.838;2023-06-10T04:25:27;98179.34;;;12.99;91.81
54936;BME280;40838;50.676;7.838;2023-06-10T04:27:55;98183.28;;;12.88;92.57
54936;BME280;40838;50.676;7.838;2023-06-10T04:30:23;98183.81;;;12.71;96.92
54936;BME280;40838;50.676;7.838;2023-06-10T04:32:50;98186.88;;;12.64;97.32
54936;BME280;40838;50.676;7.838;2023-06-10T04:35:20;98194.34;;;11.97;100.00
54936;BME280;40838;50.676;7.838;2023-06-10T04:37:47;98195.69;;;12.13;100.00
54936;BME280;40838;50.676;7.838;2023-06-10T04:40:15;98195.88;;;11.60;100.00
54936;BME280;40838;50.676;7.838;2023-06-10T04:42:42;98195.97;;;11.74;100.00
54936;BME280;40838;50.676;7.838;2023-06-10T04:45:11;98196.59;;;11.47;100.00
54936;BME280;40838;50.676;7.838;2023-06-10T04:47:38;98188.81;;;11.69;100.00
54936;BME280;40838;50.676;7.838;2023-06-10T04:50:06;98197.16;;;11.86;100.00
54936;BME280;40838;50.676;7.838;2023-06-10T04:52:33;98193.66;;;12.24;100.00
54936;BME280;40838;50.676;7.838;2023-06-10T04:55:00;98183.97;;;12.79;96.84
54936;BME280;40838;50.676;7.838;2023-06-10T04:57:26;98192.13;;;12.69;99.90
54936;BME280;40838;50.676;7.838;2023-06-10T04:59:53;98197.25;;;13.26;95.87
54936;BME280;40838;50.676;7.838;2023-06-10T05:02:21;98198.25;;;13.30;93.41
54936;BME280;40838;50.676;7.838;2023-06-10T05:04:48;98195.84;;;13.56;91.23
54936;BME280;40838;50.676;7.838;2023-06-10T05:07:14;98186.34;;;13.78;91.15
54936;BME280;40838;50.676;7.838;2023-06-10T05:09:41;98186.81;;;14.16;89.38
54936;BME280;40838;50.676;7.838;2023-06-10T05:12:10;98191.44;;;13.88;92.18
54936;BME280;40838;50.676;7.838;2023-06-10T05:14:37;98199.66;;;13.91;97.70
54936;BME280;40838;50.676;7.838;2023-06-10T05:17:03;98194.94;;;14.78;95.82
54936;BME280;40838;50.676;7.838;2023-06-10T05:19:32;98192.03;;;16.94;82.73
54936;BME280;40838;50.676;7.838;2023-06-10T05:22:02;98190.97;;;19.17;72.31
54936;BME280;40838;50.676;7.838;2023-06-10T05:24:29;98193.63;;;20.18;65.98
54936;BME280;40838;50.676;7.838;2023-06-10T05:26:56;98196.19;;;19.62;65.57
54936;BME280;40838;50.676;7.838;2023-06-10T05:29:22;98196.91;;;20.12;62.62
54936;BME280;40838;50.676;7.838;2023-06-10T05:31:49;98194.94;;;20.53;60.79
54936;BME280;40838;50.676;7.838;2023-06-10T05:34:15;98200.84;;;20.86;59.87
54936;BME280;40838;50.676;7.838;2023-06-10T05:36:43;98193.16;;;22.88;49.91
54936;BME280;40838;50.676;7.838;2023-06-10T05:39:14;98197.06;;;21.90;54.82
54936;BME280;40838;50.676;7.838;2023-06-10T05:41:41;98198.31;;;21.76;58.27
54936;BME280;40838;50.676;7.838;2023-06-10T05:44:09;98199.91;;;20.95;60.46
54936;BME280;40838;50.676;7.838;2023-06-10T05:46:36;98199.88;;;22.32;55.24
54936;BME280;40838;50.676;7.838;2023-06-10T05:49:02;98194.81;;;22.50;49.98
54936;BME280;40838;50.676;7.838;2023-06-10T05:51:29;98201.25;;;20.57;58.58
54936;BME280;40838;50.676;7.838;2023-06-10T05:54:00;98193.31;;;23.48;46.38
54936;BME280;40838;50.676;7.838;2023-06-10T05:56:27;98202.16;;;22.11;52.18
54936;BME280;40838;50.676;7.838;2023-06-10T05:58:53;98202.06;;;21.36;52.73
54936;BME280;40838;50.676;7.838;2023-06-10T06:01:20;98200.31;;;20.65;58.93
54936;BME280;40838;50.676;7.838;2023-06-10T06:03:47;98199.28;;;20.85;58.25
54936;BME280;40838;50.676;7.838;2023-06-10T06:06:13;98196.94;;;23.29;49.61
54936;BME280;40838;50.676;7.838;2023-06-10T06:08:42;98202.16;;;23.68;46.91
54936;BME280;40838;50.676;7.838;2023-06-10T06:11:10;98191.75;;;25.16;42.36
54936;BME280;40838;50.676;7.838;2023-06-10T06:13:37;98186.94;;;26.34;39.79
54936;BME280;40838;50.676;7.838;2023-06-10T06:16:03;98193.31;;;25.76;39.72
54936;BME280;40838;50.676;7.838;2023-06-10T06:18:30;98188.97;;;26.87;38.31
54936;BME280;40838;50.676;7.838;2023-06-10T06:20:56;98187.41;;;26.47;36.70
54936;BME280;40838;50.676;7.838;2023-06-10T06:23:23;98189.06;;;25.23;38.61
54936;BME280;40838;50.676;7.838;2023-06-10T06:25:49;98188.72;;;25.28;38.42
54936;BME280;40838;50.676;7.838;2023-06-10T06:28:17;98188.19;;;24.30;41.19
54936;BME280;40838;50.676;7.838;2023-06-10T06:30:46;98182.91;;;24.44;40.75
54936;BME280;40838;50.676;7.838;2023-06-10T06:33:13;98183.03;;;24.96;38.26
54936;BME280;40838;50.676;7.838;2023-06-10T06:35:39;98187.84;;;24.72;39.28
54936;BME280;40838;50.676;7.838;2023-06-10T06:38:06;98186.97;;;25.54;36.86
54936;BME280;40838;50.676;7.838;2023-06-10T06:40:34;98193.53;;;26.15;36.03
54936;BME280;40838;50.676;7.838;2023-06-10T06:43:00;98196.78;;;26.96;36.12
54936;BME280;40838;50.676;7.838;2023-06-10T06:45:47;98194.72;;;25.45;38.27
54936;BME280;40838;50.676;7.838;2023-06-10T06:48:14;98192.47;;;26.45;36.88
54936;BME280;40838;50.676;7.838;2023-06-10T06:50:40;98194.28;;;24.94;39.88
54936;BME280;40838;50.676;7.838;2023-06-10T06:53:07;98200.03;;;25.30;38.77
54936;BME280;40838;50.676;7.838;2023-06-10T06:55:34;98195.84;;;24.92;39.77
54936;BME280;40838;50.676;7.838;2023-06-10T06:58:00;98201.88;;;26.97;35.98
54936;BME280;40838;50.676;7.838;2023-06-10T07:00:29;98197.75;;;26.02;36.05
54936;BME280;40838;50.676;7.838;2023-06-10T07:02:57;98205.09;;;25.32;37.46
54936;BME280;40838;50.676;7.838;2023-06-10T07:05:25;98199.13;;;26.87;36.73
54936;BME280;40838;50.676;7.838;2023-06-10T07:07:52;98203.03;;;25.70;39.23
54936;BME280;40838;50.676;7.838;2023-06-10T07:10:20;98202.59;;;25.60;38.39
54936;BME280;40838;50.676;7.838;2023-06-10T07:12:47;98202.91;;;26.32;36.72
54936;BME280;40838;50.676;7.838;2023-06-10T07:15:15;98213.03;;;24.25;41.00
54936;BME280;40838;50.676;7.838;2023-06-10T07:17:41;98219.31;;;22.77;45.53
54936;BME280;40838;50.676;7.838;2023-06-10T07:20:11;98224.28;;;22.52;49.68
54936;BME280;40838;50.676;7.838;2023-06-10T07:22:38;98222.03;;;23.00;47.58
54936;BME280;40838;50.676;7.838;2023-06-10T07:25:05;98217.38;;;23.20;46.36
54936;BME280;40838;50.676;7.838;2023-06-10T07:27:32;98221.84;;;22.66;51.61
54936;BME280;40838;50.676;7.838;2023-06-10T07:29:59;98219.47;;;23.83;47.50
54936;BME280;40838;50.676;7.838;2023-06-10T07:32:30;98218.25;;;24.78;43.98
54936;BME280;40838;50.676;7.838;2023-06-10T07:34:56;98217.50;;;25.22;42.09
54936;BME280;40838;50.676;7.838;2023-06-10T07:37:24;98215.00;;;25.54;43.06
54936;BME280;40838;50.676;7.838;2023-06-10T07:39:51;98224.50;;;25.23;45.64
54936;BME280;40838;50.676;7.838;2023-06-10T07:42:17;98225.97;;;24.05;45.64
54936;BME280;40838;50.676;7.838;2023-06-10T07:44:44;98223.31;;;23.29;49.98
54936;BME280;40838;50.676;7.838;2023-06-10T07:47:12;98226.25;;;24.60;45.66
54936;BME280;40838;50.676;7.838;2023-06-10T07:49:39;98225.00;;;24.91;41.62
54936;BME280;40838;50.676;7.838;2023-06-10T07:52:07;98223.91;;;25.00;41.57
54936;BME280;40838;50.676;7.838;2023-06-10T07:54:37;98227.28;;;25.30;43.45
54936;BME280;40838;50.676;7.838;2023-06-10T07:57:04;98228.47;;;24.88;41.13
54936;BME280;40838;50.676;7.838;2023-06-10T07:59:32;98240.56;;;23.90;43.32
54936;BME280;40838;50.676;7.838;2023-06-10T08:01:58;98220.50;;;25.10;40.42
54936;BME280;40838;50.676;7.838;2023-06-10T08:04:26;98220.22;;;25.81;40.58
54936;BME280;40838;50.676;7.838;2023-06-10T08:06:55;98223.47;;;25.38;41.31
54936;BME280;40838;50.676;7.838;2023-06-10T08:09:21;98234.34;;;22.70;48.10
54936;BME280;40838;50.676;7.838;2023-06-10T08:11:54;98226.03;;;22.05;49.35
54936;BME280;40838;50.676;7.838;2023-06-10T08:14:21;98220.00;;;22.70;44.96
54936;BME280;40838;50.676;7.838;2023-06-10T08:16:47;98227.31;;;23.12;47.26
54936;BME280;40838;50.676;7.838;2023-06-10T08:19:14;98231.47;;;21.86;48.67
54936;BME280;40838;50.676;7.838;2023-06-10T08:21:41;98229.66;;;21.58;47.41
54936;BME280;40838;50.676;7.838;2023-06-10T08:24:07;98224.38;;;24.04;42.37
54936;BME280;40838;50.676;7.838;2023-06-10T08:26:39;98217.63;;;24.55;41.44
54936;BME280;40838;50.676;7.838;2023-06-10T08:29:08;98229.44;;;22.57;43.89
54936;BME280;40838;50.676;7.838;2023-06-10T08:31:37;98225.22;;;22.20;44.91
54936;BME280;40838;50.676;7.838;2023-06-10T08:34:07;98230.13;;;21.44;47.41
54936;BME280;40838;50.676;7.838;2023-06-10T08:36:33;98222.28;;;22.91;42.90
54936;BME280;40838;50.676;7.838;2023-06-10T08:39:00;98219.53;;;22.87;42.32
54936;BME280;40838;50.676;7.838;2023-06-10T08:41:28;98224.69;;;21.60;43.44
54936;BME280;40838;50.676;7.838;2023-06-10T08:43:58;98232.13;;;22.18;41.57
54936;BME280;40838;50.676;7.838;2023-06-10T08:46:29;98222.06;;;22.57;39.47
54936;BME280;40838;50.676;7.838;2023-06-10T08:48:57;98214.72;;;24.37;36.35
54936;BME280;40838;50.676;7.838;2023-06-10T08:51:25;98208.63;;;24.17;34.64
54936;BME280;40838;50.676;7.838;2023-06-10T08:53:55;98220.31;;;23.34;35.60
54936;BME280;40838;50.676;7.838;2023-06-10T08:56:25;98217.03;;;22.79;36.17
54936;BME280;40838;50.676;7.838;2023-06-10T08:58:53;98215.28;;;22.28;37.56
54936;BME280;40838;50.676;7.838;2023-06-10T09:01:21;98231.06;;;22.61;36.21
54936;BME280;40838;50.676;7.838;2023-06-10T09:03:52;98218.22;;;22.00;38.43
54936;BME280;40838;50.676;7.838;2023-06-10T09:06:20;98219.94;;;22.08;37.42
54936;BME280;40838;50.676;7.838;2023-06-10T09:08:48;98224.06;;;23.03;38.49
54936;BME280;40838;50.676;7.838;2023-06-10T09:11:15;98226.13;;;23.36;35.08
54936;BME280;40838;50.676;7.838;2023-06-10T09:13:41;98214.44;;;24.45;33.88
54936;BME280;40838;50.676;7.838;2023-06-10T09:16:08;98216.63;;;24.73;35.18
54936;BME280;40838;50.676;7.838;2023-06-10T09:18:37;98214.91;;;23.37;35.96
54936;BME280;40838;50.676;7.838;2023-06-10T09:21:05;98219.06;;;23.05;36.90
54936;BME280;40838;50.676;7.838;2023-06-10T09:23:31;98216.47;;;23.38;37.14
54936;BME280;40838;50.676;7.838;2023-06-10T09:25:58;98226.88;;;23.86;32.99
54936;BME280;40838;50.676;7.838;2023-06-10T09:28:27;98226.28;;;23.70;33.50
54936;BME280;40838;50.676;7.838;2023-06-10T09:31:03;98224.13;;;23.82;31.91
54936;BME280;40838;50.676;7.838;2023-06-10T09:33:30;98216.50;;;24.22;34.15
54936;BME280;40838;50.676;7.838;2023-06-10T09:35:57;98216.38;;;23.85;32.24
54936;BME280;40838;50.676;7.838;2023-06-10T09:38:30;98203.59;;;23.89;33.61
54936;BME280;40838;50.676;7.838;2023-06-10T09:40:57;98214.47;;;24.86;32.98
54936;BME280;40838;50.676;7.838;2023-06-10T09:43:38;98217.25;;;24.56;33.27
54936;BME280;40838;50.676;7.838;2023-06-10T09:46:14;98203.44;;;25.20;32.88
54936;BME280;40838;50.676;7.838;2023-06-10T09:48:41;98215.06;;;24.69;33.15
54936;BME280;40838;50.676;7.838;2023-06-10T09:51:09;98213.34;;;23.63;34.50
54936;BME280;40838;50.676;7.838;2023-06-10T09:53:37;98216.06;;;24.20;34.20
54936;BME280;40838;50.676;7.838;2023-06-10T09:56:04;98212.00;;;24.37;35.99
54936;BME280;40838;50.676;7.838;2023-06-10T09:58:34;98224.06;;;23.52;31.74
54936;BME280;40838;50.676;7.838;2023-06-10T10:01:04;98215.84;;;24.36;35.20
54936;BME280;40838;50.676;7.838;2023-06-10T10:03:30;98215.09;;;24.05;33.26
54936;BME280;40838;50.676;7.838;2023-06-10T10:05:57;98215.06;;;25.10;32.67
54936;BME280;40838;50.676;7.838;2023-06-10T10:08:25;98207.28;;;24.03;32.23
54936;BME280;40838;50.676;7.838;2023-06-10T10:11:02;98209.53;;;23.41;33.56
54936;BME280;40838;50.676;7.838;2023-06-10T10:13:29;98219.00;;;23.77;35.76
54936;BME280;40838;50.676;7.838;2023-06-10T10:16:00;98213.63;;;24.11;32.10
54936;BME280;40838;50.676;7.838;2023-06-10T10:18:29;98209.75;;;23.55;31.74
54936;BME280;40838;50.676;7.838;2023-06-10T10:20:56;98224.69;;;23.69;31.70
54936;BME280;40838;50.676;7.838;2023-06-10T10:23:26;98215.03;;;23.22;32.05
54936;BME280;40838;50.676;7.838;2023-06-10T10:25:56;98224.53;;;23.58;32.20
54936;BME280;40838;50.676;7.838;2023-06-10T10:28:25;98225.00;;;23.37;32.26
54936;BME280;40838;50.676;7.838;2023-06-10T10:30:58;98219.59;;;23.14;31.18
54936;BME280;40838;50.676;7.838;2023-06-10T10:33:27;98209.94;;;22.51;33.68
54936;BME280;40838;50.676;7.838;2023-06-10T10:35:57;98227.97;;;22.63;33.07
54936;BME280;40838;50.676;7.838;2023-06-10T10:38:24;98215.53;;;23.04;33.35
54936;BME280;40838;50.676;7.838;2023-06-10T10:40:51;98221.28;;;23.22;33.31
54936;BME280;40838;50.676;7.838;2023-06-10T10:43:18;98220.69;;;22.90;34.30
54936;BME280;40838;50.676;7.838;2023-06-10T10:45:46;98214.56;;;22.93;33.02
54936;BME280;40838;50.676;7.838;2023-06-10T10:48:23;98223.81;;;23.11;33.43
54936;BME280;40838;50.676;7.838;2023-06-10T10:50:56;98216.25;;;23.51;32.56
54936;BME280;40838;50.676;7.838;2023-06-10T10:53:22;98217.59;;;22.88;32.81
54936;BME280;40838;50.676;7.838;2023-06-10T10:55:57;98207.03;;;23.06;33.04
54936;BME280;40838;50.676;7.838;2023-06-10T10:58:24;98205.47;;;22.82;33.59
54936;BME280;40838;50.676;7.838;2023-06-10T11:00:52;98215.84;;;22.99;35.65
54936;BME280;40838;50.676;7.838;2023-06-10T11:03:19;98220.97;;;23.04;36.96
54936;BME280;40838;50.676;7.838;2023-06-10T11:05:47;98206.66;;;23.57;35.47
54936;BME280;40838;50.676;7.838;2023-06-10T11:08:14;98212.44;;;23.02;35.95
54936;BME280;40838;50.676;7.838;2023-06-10T11:10:41;98198.19;;;22.66;36.01
54936;BME280;40838;50.676;7.838;2023-06-10T11:13:08;98208.06;;;22.36;34.40
54936;BME280;40838;50.676;7.838;2023-06-10T11:15:39;98199.13;;;23.20;35.10
54936;BME280;40838;50.676;7.838;2023-06-10T11:18:11;98204.16;;;22.33;37.75
54936;BME280;40838;50.676;7.838;2023-06-10T11:20:41;98197.25;;;23.51;36.32
54936;BME280;40838;50.676;7.838;2023-06-10T11:23:08;98206.44;;;22.93;38.20
54936;BME280;40838;50.676;7.838;2023-06-10T11:25:38;98195.16;;;22.48;38.92
54936;BME280;40838;50.676;7.838;2023-06-10T11:28:08;98200.63;;;22.94;36.84
54936;BME280;40838;50.676;7.838;2023-06-10T11:30:43;98180.94;;;22.78;36.34
54936;BME280;40838;50.676;7.838;2023-06-10T11:33:14;98194.72;;;23.12;36.15
54936;BME280;40838;50.676;7.838;2023-06-10T11:35:42;98181.25;;;22.96;35.87
54936;BME280;40838;50.676;7.838;2023-06-10T11:38:09;98185.72;;;23.57;34.56
54936;BME280;40838;50.676;7.838;2023-06-10T11:40:36;98183.75;;;22.20;37.99
54936;BME280;40838;50.676;7.838;2023-06-10T11:43:03;98193.59;;;22.47;38.34
54936;BME280;40838;50.676;7.838;2023-06-10T11:45:30;98160.56;;;22.03;41.76
54936;BME280;40838;50.676;7.838;2023-06-10T11:47:57;98189.47;;;23.23;39.54
54936;BME280;40838;50.676;7.838;2023-06-10T11:50:32;98183.50;;;23.13;35.95
54936;BME280;40838;50.676;7.838;2023-06-10T11:52:59;98187.28;;;23.32;35.44
54936;BME280;40838;50.676;7.838;2023-06-10T11:55:25;98186.66;;;22.50;40.30
54936;BME280;40838;50.676;7.838;2023-06-10T11:57:52;98190.94;;;21.93;41.20
54936;BME280;40838;50.676;7.838;2023-06-10T12:00:22;98195.19;;;21.39;42.05
54936;BME280;40838;50.676;7.838;2023-06-10T12:02:54;98175.28;;;22.64;39.45
54936;BME280;40838;50.676;7.838;2023-06-10T12:05:22;98188.75;;;22.18;40.20
54936;BME280;40838;50.676;7.838;2023-06-10T12:07:51;98192.91;;;21.25;43.39
54936;BME280;40838;50.676;7.838;2023-06-10T12:10:31;98191.09;;;22.00;41.92
54936;BME280;40838;50.676;7.838;2023-06-10T12:12:58;98178.47;;;22.46;40.60
54936;BME280;40838;50.676;7.838;2023-06-10T12:15:25;98178.72;;;22.84;38.89
54936;BME280;40838;50.676;7.838;2023-06-10T12:17:54;98167.69;;;22.11;40.06
54936;BME280;40838;50.676;7.838;2023-06-10T12:20:24;98170.84;;;23.25;41.98
54936;BME280;40838;50.676;7.838;2023-06-10T12:22:52;98175.50;;;23.01;37.99
54936;BME280;40838;50.676;7.838;2023-06-10T12:25:24;98160.50;;;22.84;35.86
54936;BME280;40838;50.676;7.838;2023-06-10T12:27:51;98174.91;;;22.03;39.76
54936;BME280;40838;50.676;7.838;2023-06-10T12:30:19;98162.78;;;21.62;37.60
54936;BME280;40838;50.676;7.838;2023-06-10T12:32:46;98159.56;;;21.56;37.22
54936;BME280;40838;50.676;7.838;2023-06-10T12:35:15;98142.13;;;22.12;36.07
54936;BME280;40838;50.676;7.838;2023-06-10T12:37:43;98156.28;;;22.64;36.13
54936;BME280;40838;50.676;7.838;2023-06-10T12:40:26;98152.72;;;23.06;35.89
54936;BME280;40838;50.676;7.838;2023-06-10T12:42:53;98155.44;;;23.06;34.39
54936;BME280;40838;50.676;7.838;2023-06-10T12:45:25;98158.06;;;23.25;33.22
54936;BME280;40838;50.676;7.838;2023-06-10T12:48:03;98155.78;;;23.04;33.84
54936;BME280;40838;50.676;7.838;2023-06-10T12:50:32;98153.00;;;23.24;31.93
54936;BME280;40838;50.676;7.838;2023-06-10T12:52:59;98146.44;;;22.56;32.40
54936;BME280;40838;50.676;7.838;2023-06-10T12:55:27;98147.47;;;22.93;34.28
54936;BME280;40838;50.676;7.838;2023-06-10T12:57:54;98162.13;;;22.04;36.82
54936;BME280;40838;50.676;7.838;2023-06-10T13:00:31;98167.75;;;22.77;35.35
54936;BME280;40838;50.676;7.838;2023-06-10T13:03:00;98161.81;;;22.48;32.37